sensor_id;sensor_type;location;lat;lon;timestamp;pressure;altitude;pressure_sealevel;temperature;humidity
71735;BME280;59577;52.122;5.406;2023-04-05T00:01:58;102622.75;;;3.26;77.21
71735;BME280;59577;52.122;5.406;2023-04-05T00:04:26;102626.72;;;3.23;77.49
71735;BME280;59577;52.122;5.406;2023-04-05T00:06:54;102622.91;;;3.14;77.57
71735;BME280;59577;52.122;5.406;2023-04-05T00:09:22;102622.88;;;3.09;77.92
71735;BME280;59577;52.122;5.406;2023-04-05T00:11:49;102626.06;;;3.06;77.97
71735;BME280;59577;52.122;5.406;2023-04-05T00:14:16;102618.78;;;3.01;78.24
71735;BME280;59577;52.122;5.406;2023-04-05T00:16:42;102616.91;;;2.96;78.29
71735;BME280;59577;52.122;5.406;2023-04-05T00:19:09;102617.16;;;2.95;78.56
71735;BME280;59577;52.122;5.406;2023-04-05T00:21:38;102621.66;;;2.89;78.67
71735;BME280;59577;52.122;5.406;2023-04-05T00:24:05;102614.41;;;2.85;78.53
71735;BME280;59577;52.122;5.406;2023-04-05T00:26:33;102607.66;;;2.77;78.73
71735;BME280;59577;52.122;5.406;2023-04-05T00:29:00;102615.06;;;2.70;78.73
71735;BME280;59577;52.122;5.406;2023-04-05T00:31:27;102613.72;;;2.67;78.92
71735;BME280;59577;52.122;5.406;2023-04-05T00:33:54;102613.97;;;2.66;79.01
71735;BME280;59577;52.122;5.406;2023-04-05T00:36:21;102622.72;;;2.61;78.62
71735;BME280;59577;52.122;5.406;2023-04-05T00:38:48;102618.41;;;2.55;78.83
71735;BME280;59577;52.122;5.406;2023-04-05T00:41:15;102607.06;;;2.42;78.83
71735;BME280;59577;52.122;5.406;2023-04-05T00:43:42;102612.38;;;2.37;78.64
71735;BME280;59577;52.122;5.406;2023-04-05T00:46:09;102603.22;;;2.33;78.87
71735;BME280;59577;52.122;5.406;2023-04-05T00:48:37;102603.22;;;2.33;78.82
71735;BME280;59577;52.122;5.406;2023-04-05T00:51:04;102605.09;;;2.33;79.19
71735;BME280;59577;52.122;5.406;2023-04-05T00:53:35;102593.63;;;2.32;79.21
71735;BME280;59577;52.122;5.406;2023-04-05T00:56:03;102609.09;;;2.30;79.26
71735;BME280;59577;52.122;5.406;2023-04-05T00:58:30;102610.69;;;2.31;78.91
71735;BME280;59577;52.122;5.406;2023-04-05T01:01:15;102599.44;;;2.29;79.26
71735;BME280;59577;52.122;5.406;2023-04-05T01:03:53;102597.28;;;2.26;79.23
71735;BME280;59577;52.122;5.406;2023-04-05T01:06:42;102597.22;;;2.21;79.11
71735;BME280;59577;52.122;5.406;2023-04-05T01:09:32;102593.69;;;2.15;79.08
71735;BME280;59577;52.122;5.406;2023-04-05T01:12:04;102591.75;;;2.11;78.98
71735;BME280;59577;52.122;5.406;2023-04-05T01:14:45;102594.06;;;2.02;79.15
71735;BME280;59577;52.122;5.406;2023-04-05T01:17:12;102584.78;;;2.04;79.36
71735;BME280;59577;52.122;5.406;2023-04-05T01:19:38;102592.78;;;2.04;79.17
71735;BME280;59577;52.122;5.406;2023-04-05T01:27:52;102579.19;;;1.84;79.24
71735;BME280;59577;52.122;5.406;2023-04-05T01:30:27;102582.03;;;1.77;79.22
71735;BME280;59577;52.122;5.406;2023-04-05T01:33:01;102581.50;;;1.75;79.63
71735;BME280;59577;52.122;5.406;2023-04-05T01:35:53;102582.78;;;1.73;79.54
71735;BME280;59577;52.122;5.406;2023-04-05T01:38:23;102574.53;;;1.74;79.71
71735;BME280;59577;52.122;5.406;2023-04-05T01:40:51;102576.56;;;1.67;79.81
71735;BME280;59577;52.122;5.406;2023-04-05T01:43:18;102576.50;;;1.62;79.72
71735;BME280;59577;52.122;5.406;2023-04-05T01:45:45;102579.34;;;1.55;79.65
71735;BME280;59577;52.122;5.406;2023-04-05T01:48:13;102579.28;;;1.50;79.48
71735;BME280;59577;52.122;5.406;2023-04-05T01:50:39;102572.03;;;1.45;80.24
71735;BME280;59577;52.122;5.406;2023-04-05T01:53:07;102581.88;;;1.45;80.06
71735;BME280;59577;52.122;5.406;2023-04-05T01:55:33;102575.69;;;1.39;79.88
71735;BME280;59577;52.122;5.406;2023-04-05T01:58:00;102563.13;;;1.40;80.37
71735;BME280;59577;52.122;5.406;2023-04-05T02:00:27;102559.44;;;1.41;80.53
71735;BME280;59577;52.122;5.406;2023-04-05T02:02:53;102553.03;;;1.42;79.83
71735;BME280;59577;52.122;5.406;2023-04-05T02:05:20;102556.75;;;1.41;80.19
71735;BME280;59577;52.122;5.406;2023-04-05T02:08:01;102560.22;;;1.41;80.58
71735;BME280;59577;52.122;5.406;2023-04-05T02:10:27;102554.09;;;1.41;80.27
71735;BME280;59577;52.122;5.406;2023-04-05T02:12:54;102555.69;;;1.42;80.55
71735;BME280;59577;52.122;5.406;2023-04-05T02:15:21;102561.53;;;1.39;80.68
71735;BME280;59577;52.122;5.406;2023-04-05T02:17:48;102559.59;;;1.34;80.40
71735;BME280;59577;52.122;5.406;2023-04-05T02:20:14;102556.06;;;1.28;80.24
71735;BME280;59577;52.122;5.406;2023-04-05T02:22:41;102547.75;;;1.25;80.64
71735;BME280;59577;52.122;5.406;2023-04-05T02:25:11;102549.34;;;1.26;80.61
71735;BME280;59577;52.122;5.406;2023-04-05T02:27:39;102545.31;;;1.23;80.66
71735;BME280;59577;52.122;5.406;2023-04-05T02:30:06;102544.78;;;1.21;80.73
71735;BME280;59577;52.122;5.406;2023-04-05T02:32:33;102538.53;;;1.16;80.67
71735;BME280;59577;52.122;5.406;2023-04-05T02:34:59;102539.84;;;1.13;80.68
71735;BME280;59577;52.122;5.406;2023-04-05T02:37:27;102542.50;;;1.13;81.15
71735;BME280;59577;52.122;5.406;2023-04-05T02:39:53;102540.88;;;1.12;80.97
71735;BME280;59577;52.122;5.406;2023-04-05T02:42:20;102539.78;;;1.08;81.10
71735;BME280;59577;52.122;5.406;2023-04-05T02:44:46;102546.63;;;1.04;80.94
71735;BME280;59577;52.122;5.406;2023-04-05T02:47:13;102542.59;;;1.01;81.24
71735;BME280;59577;52.122;5.406;2023-04-05T02:49:47;102542.84;;;1.00;80.99
71735;BME280;59577;52.122;5.406;2023-04-05T02:52:14;102539.06;;;0.96;81.36
71735;BME280;59577;52.122;5.406;2023-04-05T02:54:42;102524.84;;;0.90;81.23
71735;BME280;59577;52.122;5.406;2023-04-05T02:57:09;102529.03;;;0.86;81.26
71735;BME280;59577;52.122;5.406;2023-04-05T02:59:37;102528.81;;;0.87;81.57
71735;BME280;59577;52.122;5.406;2023-04-05T03:02:05;102525.59;;;0.85;81.92
71735;BME280;59577;52.122;5.406;2023-04-05T03:04:31;102527.09;;;0.81;81.94
71735;BME280;59577;52.122;5.406;2023-04-05T03:07:00;102520.91;;;0.75;81.91
71735;BME280;59577;52.122;5.406;2023-04-05T03:09:28;102521.44;;;0.78;82.20
71735;BME280;59577;52.122;5.406;2023-04-05T03:12:02;102518.78;;;0.78;81.95
71735;BME280;59577;52.122;5.406;2023-04-05T03:14:29;102510.56;;;0.79;81.70
71735;BME280;59577;52.122;5.406;2023-04-05T03:16:57;102518.00;;;0.77;81.87
71735;BME280;59577;52.122;5.406;2023-04-05T03:19:24;102510.56;;;0.79;81.56
71735;BME280;59577;52.122;5.406;2023-04-05T03:21:52;102510.31;;;0.81;81.87
71735;BME280;59577;52.122;5.406;2023-04-05T03:24:18;102511.88;;;0.77;81.42
71735;BME280;59577;52.122;5.406;2023-04-05T03:26:46;102511.03;;;0.76;81.51
71735;BME280;59577;52.122;5.406;2023-04-05T03:29:15;102518.72;;;0.72;81.40
71735;BME280;59577;52.122;5.406;2023-04-05T03:31:43;102519.22;;;0.69;82.00
71735;BME280;59577;52.122;5.406;2023-04-05T03:34:10;102517.34;;;0.70;81.84
71735;BME280;59577;52.122;5.406;2023-04-05T03:36:36;102505.31;;;0.67;81.74
71735;BME280;59577;52.122;5.406;2023-04-05T03:39:10;102507.66;;;0.64;81.92
71735;BME280;59577;52.122;5.406;2023-04-05T03:41:38;102501.75;;;0.62;82.09
71735;BME280;59577;52.122;5.406;2023-04-05T03:44:06;102502.25;;;0.59;82.12
71735;BME280;59577;52.122;5.406;2023-04-05T03:46:33;102503.53;;;0.56;82.29
71735;BME280;59577;52.122;5.406;2023-04-05T03:49:01;102507.50;;;0.53;82.17
71735;BME280;59577;52.122;5.406;2023-04-05T03:51:28;102502.06;;;0.48;82.56
71735;BME280;59577;52.122;5.406;2023-04-05T03:53:54;102504.66;;;0.43;82.74
71735;BME280;59577;52.122;5.406;2023-04-05T03:56:21;102500.16;;;0.44;82.49
71735;BME280;59577;52.122;5.406;2023-04-05T03:58:48;102502.81;;;0.44;82.19
71735;BME280;59577;52.122;5.406;2023-04-05T04:01:14;102505.97;;;0.41;82.29
71735;BME280;59577;52.122;5.406;2023-04-05T04:03:41;102504.84;;;0.36;82.28
71735;BME280;59577;52.122;5.406;2023-04-05T04:06:08;102499.19;;;0.33;82.09
71735;BME280;59577;52.122;5.406;2023-04-05T04:08:34;102486.91;;;0.32;82.17
71735;BME280;59577;52.122;5.406;2023-04-05T04:11:02;102498.84;;;0.29;82.33
71735;BME280;59577;52.122;5.406;2023-04-05T04:13:29;102494.81;;;0.27;82.33
71735;BME280;59577;52.122;5.406;2023-04-05T04:15:55;102500.84;;;0.22;82.50
71735;BME280;59577;52.122;5.406;2023-04-05T04:18:22;102499.00;;;0.23;82.66
71735;BME280;59577;52.122;5.406;2023-04-05T04:20:48;102498.19;;;0.22;82.62
71735;BME280;59577;52.122;5.406;2023-04-05T04:23:17;102494.72;;;0.22;82.67
71735;BME280;59577;52.122;5.406;2023-04-05T04:25:44;102500.59;;;0.24;82.86
71735;BME280;59577;52.122;5.406;2023-04-05T04:28:11;102505.47;;;0.27;82.89
71735;BME280;59577;52.122;5.406;2023-04-05T04:30:37;102500.69;;;0.29;83.21
71735;BME280;59577;52.122;5.406;2023-04-05T04:33:04;102498.28;;;0.27;83.12
71735;BME280;59577;52.122;5.406;2023-04-05T04:35:34;102504.34;;;0.23;83.12
71735;BME280;59577;52.122;5.406;2023-04-05T04:38:05;102495.75;;;0.21;83.10
71735;BME280;59577;52.122;5.406;2023-04-05T04:40:35;102501.09;;;0.21;83.09
71735;BME280;59577;52.122;5.406;2023-04-05T04:43:07;102504.25;;;0.17;82.80
71735;BME280;59577;52.122;5.406;2023-04-05T04:45:39;102500.44;;;0.13;82.63
71735;BME280;59577;52.122;5.406;2023-04-05T04:48:07;102496.16;;;0.12;83.06
71735;BME280;59577;52.122;5.406;2023-04-05T04:50:34;102500.91;;;0.10;82.78
71735;BME280;59577;52.122;5.406;2023-04-05T04:53:01;102485.19;;;0.09;82.69
71735;BME280;59577;52.122;5.406;2023-04-05T04:55:27;102501.41;;;0.07;82.63
71735;BME280;59577;52.122;5.406;2023-04-05T04:57:55;102501.63;;;0.06;82.64
71735;BME280;59577;52.122;5.406;2023-04-05T05:00:22;102495.75;;;0.04;82.97
71735;BME280;59577;52.122;5.406;2023-04-05T05:02:50;102498.16;;;0.05;82.93
71735;BME280;59577;52.122;5.406;2023-04-05T05:05:18;102492.13;;;0.10;82.94
71735;BME280;59577;52.122;5.406;2023-04-05T05:07:49;102494.69;;;0.05;82.63
71735;BME280;59577;52.122;5.406;2023-04-05T05:10:16;102489.03;;;0.01;82.96
71735;BME280;59577;52.122;5.406;2023-04-05T05:12:42;102487.66;;;-0.02;82.52
71735;BME280;59577;52.122;5.406;2023-04-05T05:15:10;102488.00;;;0.02;82.92
71735;BME280;59577;52.122;5.406;2023-04-05T05:17:37;102488.88;;;0.08;82.96
71735;BME280;59577;52.122;5.406;2023-04-05T05:20:06;102489.44;;;0.10;83.18
71735;BME280;59577;52.122;5.406;2023-04-05T05:22:37;102490.00;;;0.12;83.09
71735;BME280;59577;52.122;5.406;2023-04-05T05:25:05;102483.66;;;0.13;83.01
71735;BME280;59577;52.122;5.406;2023-04-05T05:27:31;102485.34;;;0.19;82.76
71735;BME280;59577;52.122;5.406;2023-04-05T05:30:02;102487.28;;;0.24;82.40
71735;BME280;59577;52.122;5.406;2023-04-05T05:32:29;102481.66;;;0.37;82.54
71735;BME280;59577;52.122;5.406;2023-04-05T05:34:55;102474.78;;;0.58;82.47
71735;BME280;59577;52.122;5.406;2023-04-05T05:37:30;102479.31;;;0.74;82.08
71735;BME280;59577;52.122;5.406;2023-04-05T05:39:56;102482.84;;;0.80;81.77
71735;BME280;59577;52.122;5.406;2023-04-05T05:42:29;102479.88;;;1.16;81.94
71735;BME280;59577;52.122;5.406;2023-04-05T05:45:04;102478.00;;;2.10;81.08
71735;BME280;59577;52.122;5.406;2023-04-05T05:47:31;102484.25;;;3.64;78.80
71735;BME280;59577;52.122;5.406;2023-04-05T05:49:57;102474.81;;;5.75;74.73
71735;BME280;59577;52.122;5.406;2023-04-05T05:52:24;102470.41;;;7.55;68.99
71735;BME280;59577;52.122;5.406;2023-04-05T05:54:51;102479.75;;;8.80;64.00
71735;BME280;59577;52.122;5.406;2023-04-05T05:57:17;102475.44;;;9.85;60.14
71735;BME280;59577;52.122;5.406;2023-04-05T05:59:44;102475.59;;;10.88;55.86
71735;BME280;59577;52.122;5.406;2023-04-05T06:02:11;102471.63;;;11.60;53.22
71735;BME280;59577;52.122;5.406;2023-04-05T06:04:38;102472.72;;;12.29;51.31
71735;BME280;59577;52.122;5.406;2023-04-05T06:07:04;102473.19;;;12.78;49.67
71735;BME280;59577;52.122;5.406;2023-04-05T06:09:32;102478.56;;;13.26;48.25
71735;BME280;59577;52.122;5.406;2023-04-05T06:12:00;102474.16;;;13.63;47.14
71735;BME280;59577;52.122;5.406;2023-04-05T06:14:27;102467.00;;;14.13;46.21
71735;BME280;59577;52.122;5.406;2023-04-05T06:16:55;102474.63;;;14.65;44.77
71735;BME280;59577;52.122;5.406;2023-04-05T06:19:22;102475.53;;;15.07;44.14
71735;BME280;59577;52.122;5.406;2023-04-05T06:21:49;102475.84;;;15.42;43.44
71735;BME280;59577;52.122;5.406;2023-04-05T06:24:15;102476.41;;;14.03;43.65
71735;BME280;59577;52.122;5.406;2023-04-05T06:26:42;102482.97;;;12.06;46.76
71735;BME280;59577;52.122;5.406;2023-04-05T06:29:08;102484.94;;;10.73;49.31
71735;BME280;59577;52.122;5.406;2023-04-05T06:31:35;102489.25;;;9.84;51.86
71735;BME280;59577;52.122;5.406;2023-04-05T06:34:02;102487.22;;;9.53;53.50
71735;BME280;59577;52.122;5.406;2023-04-05T06:36:34;102491.47;;;8.76;54.04
71735;BME280;59577;52.122;5.406;2023-04-05T06:39:01;102488.44;;;8.50;55.86
71735;BME280;59577;52.122;5.406;2023-04-05T06:41:28;102492.09;;;9.00;55.94
71735;BME280;59577;52.122;5.406;2023-04-05T06:43:55;102481.13;;;8.50;56.17
71735;BME280;59577;52.122;5.406;2023-04-05T06:46:22;102477.63;;;7.60;57.23
71735;BME280;59577;52.122;5.406;2023-04-05T06:48:51;102477.81;;;7.25;59.18
71735;BME280;59577;52.122;5.406;2023-04-05T06:51:18;102483.88;;;8.78;58.15
71735;BME280;59577;52.122;5.406;2023-04-05T06:53:44;102482.34;;;8.39;57.33
71735;BME280;59577;52.122;5.406;2023-04-05T06:56:11;102485.19;;;7.58;57.50
71735;BME280;59577;52.122;5.406;2023-04-05T06:58:48;102491.09;;;7.41;59.43
71735;BME280;59577;52.122;5.406;2023-04-05T07:01:16;102488.03;;;7.66;59.87
71735;BME280;59577;52.122;5.406;2023-04-05T07:03:43;102485.72;;;8.50;58.86
71735;BME280;59577;52.122;5.406;2023-04-05T07:06:09;102487.19;;;8.89;57.20
71735;BME280;59577;52.122;5.406;2023-04-05T07:08:37;102481.28;;;9.00;57.46
71735;BME280;59577;52.122;5.406;2023-04-05T07:11:03;102480.63;;;10.18;55.51
71735;BME280;59577;52.122;5.406;2023-04-05T07:13:31;102471.16;;;13.35;50.10
71735;BME280;59577;52.122;5.406;2023-04-05T07:16:01;102466.47;;;15.68;42.33
71735;BME280;59577;52.122;5.406;2023-04-05T07:18:28;102470.97;;;17.32;39.20
71735;BME280;59577;52.122;5.406;2023-04-05T07:20:57;102466.00;;;18.15;35.79
71735;BME280;59577;52.122;5.406;2023-04-05T07:23:27;102466.84;;;18.89;33.95
71735;BME280;59577;52.122;5.406;2023-04-05T07:25:57;102470.63;;;19.34;34.47
71735;BME280;59577;52.122;5.406;2023-04-05T07:28:24;102466.69;;;19.65;31.49
71735;BME280;59577;52.122;5.406;2023-04-05T07:30:50;102457.72;;;20.47;31.40
71735;BME280;59577;52.122;5.406;2023-04-05T07:33:17;102458.50;;;20.47;30.11
71735;BME280;59577;52.122;5.406;2023-04-05T07:35:43;102464.47;;;21.12;30.71
71735;BME280;59577;52.122;5.406;2023-04-05T07:38:10;102459.31;;;21.88;29.02
71735;BME280;59577;52.122;5.406;2023-04-05T07:40:36;102460.47;;;21.83;28.52
71735;BME280;59577;52.122;5.406;2023-04-05T07:43:03;102467.97;;;21.97;28.67
71735;BME280;59577;52.122;5.406;2023-04-05T07:45:29;102460.81;;;21.67;28.33
71735;BME280;59577;52.122;5.406;2023-04-05T07:47:56;102457.69;;;21.69;27.54
71735;BME280;59577;52.122;5.406;2023-04-05T07:50:22;102460.41;;;21.62;29.79
71735;BME280;59577;52.122;5.406;2023-04-05T07:52:49;102458.91;;;21.89;27.26
71735;BME280;59577;52.122;5.406;2023-04-05T07:55:15;102458.97;;;21.16;27.27
71735;BME280;59577;52.122;5.406;2023-04-05T07:57:42;102453.00;;;20.96;29.76
71735;BME280;59577;52.122;5.406;2023-04-05T08:00:09;102454.47;;;21.56;29.73
71735;BME280;59577;52.122;5.406;2023-04-05T08:02:37;102447.06;;;21.89;28.92
71735;BME280;59577;52.122;5.406;2023-04-05T08:05:04;102441.19;;;21.94;29.78
71735;BME280;59577;52.122;5.406;2023-04-05T08:07:31;102453.78;;;21.88;27.54
71735;BME280;59577;52.122;5.406;2023-04-05T08:09:57;102448.25;;;21.70;29.83
71735;BME280;59577;52.122;5.406;2023-04-05T08:12:25;102449.41;;;21.76;29.18
71735;BME280;59577;52.122;5.406;2023-04-05T08:14:52;102451.06;;;22.13;28.03
71735;BME280;59577;52.122;5.406;2023-04-05T08:17:19;102444.41;;;22.28;30.03
71735;BME280;59577;52.122;5.406;2023-04-05T08:19:45;102450.28;;;22.16;26.96
71735;BME280;59577;52.122;5.406;2023-04-05T08:22:12;102451.78;;;21.81;28.29
71735;BME280;59577;52.122;5.406;2023-04-05T08:24:39;102454.56;;;21.99;27.23
71735;BME280;59577;52.122;5.406;2023-04-05T08:27:05;102445.78;;;21.50;26.51
71735;BME280;59577;52.122;5.406;2023-04-05T08:29:32;102441.88;;;21.55;26.28
71735;BME280;59577;52.122;5.406;2023-04-05T08:31:58;102445.41;;;21.48;25.89
71735;BME280;59577;52.122;5.406;2023-04-05T08:34:25;102446.22;;;20.86;25.66
71735;BME280;59577;52.122;5.406;2023-04-05T08:36:51;102445.50;;;20.41;27.79
71735;BME280;59577;52.122;5.406;2023-04-05T08:39:17;102439.03;;;20.22;26.24
71735;BME280;59577;52.122;5.406;2023-04-05T08:42:14;102441.34;;;19.79;27.38
71735;BME280;59577;52.122;5.406;2023-04-05T08:44:43;102432.25;;;20.09;28.26
71735;BME280;59577;52.122;5.406;2023-04-05T08:47:11;102428.91;;;20.30;27.81
71735;BME280;59577;52.122;5.406;2023-04-05T08:49:44;102426.63;;;20.39;25.96
71735;BME280;59577;52.122;5.406;2023-04-05T08:52:10;102430.69;;;20.12;26.70
71735;BME280;59577;52.122;5.406;2023-04-05T08:54:37;102426.13;;;20.26;26.91
71735;BME280;59577;52.122;5.406;2023-04-05T08:57:04;102423.72;;;19.80;24.97
71735;BME280;59577;52.122;5.406;2023-04-05T08:59:32;102428.13;;;19.88;25.63
71735;BME280;59577;52.122;5.406;2023-04-05T09:02:07;102429.22;;;20.21;28.70
71735;BME280;59577;52.122;5.406;2023-04-05T09:04:38;102427.72;;;20.31;27.23
71735;BME280;59577;52.122;5.406;2023-04-05T09:07:14;102427.16;;;20.59;25.89
71735;BME280;59577;52.122;5.406;2023-04-05T09:09:46;102423.56;;;20.07;25.20
71735;BME280;59577;52.122;5.406;2023-04-05T09:12:29;102421.72;;;20.18;28.82
71735;BME280;59577;52.122;5.406;2023-04-05T09:14:59;102422.38;;;20.49;27.40
71735;BME280;59577;52.122;5.406;2023-04-05T09:17:27;102419.44;;;20.76;27.16
71735;BME280;59577;52.122;5.406;2023-04-05T09:20:15;102427.56;;;20.13;26.04
71735;BME280;59577;52.122;5.406;2023-04-05T09:22:51;102431.84;;;20.10;29.44
71735;BME280;59577;52.122;5.406;2023-04-05T09:25:37;102421.50;;;20.38;27.06
71735;BME280;59577;52.122;5.406;2023-04-05T09:28:05;102426.16;;;19.55;25.50
71735;BME280;59577;52.122;5.406;2023-04-05T09:30:50;102425.59;;;19.72;26.10
71735;BME280;59577;52.122;5.406;2023-04-05T09:33:20;102414.81;;;19.94;24.93
71735;BME280;59577;52.122;5.406;2023-04-05T09:36:05;102418.31;;;19.91;24.73
71735;BME280;59577;52.122;5.406;2023-04-05T09:39:03;102413.41;;;19.73;25.68
71735;BME280;59577;52.122;5.406;2023-04-05T09:41:30;102417.00;;;19.78;25.44
71735;BME280;59577;52.122;5.406;2023-04-05T09:44:11;102408.91;;;19.92;26.10
71735;BME280;59577;52.122;5.406;2023-04-05T09:46:38;102412.47;;;19.96;26.38
71735;BME280;59577;52.122;5.406;2023-04-05T09:49:05;102411.47;;;20.15;25.07
71735;BME280;59577;52.122;5.406;2023-04-05T09:51:51;102407.44;;;20.54;27.29
71735;BME280;59577;52.122;5.406;2023-04-05T09:54:25;102407.38;;;21.02;27.98
71735;BME280;59577;52.122;5.406;2023-04-05T09:56:54;102416.34;;;20.88;25.30
71735;BME280;59577;52.122;5.406;2023-04-05T09:59:23;102402.75;;;20.54;24.80
71735;BME280;59577;52.122;5.406;2023-04-05T10:02:09;102405.03;;;19.97;25.24
71735;BME280;59577;52.122;5.406;2023-04-05T10:04:38;102410.09;;;19.57;24.92
71735;BME280;59577;52.122;5.406;2023-04-05T10:07:21;102400.53;;;19.44;25.91
71735;BME280;59577;52.122;5.406;2023-04-05T10:09:48;102393.91;;;19.48;24.28
71735;BME280;59577;52.122;5.406;2023-04-05T10:12:37;102394.06;;;19.29;24.62
71735;BME280;59577;52.122;5.406;2023-04-05T10:15:04;102394.63;;;19.42;24.95
71735;BME280;59577;52.122;5.406;2023-04-05T10:20:41;102381.31;;;19.44;26.75
71735;BME280;59577;52.122;5.406;2023-04-05T10:23:12;102378.22;;;19.49;25.10
71735;BME280;59577;52.122;5.406;2023-04-05T10:26:03;102379.09;;;18.92;25.95
71735;BME280;59577;52.122;5.406;2023-04-05T10:31:54;102373.56;;;19.19;26.21
71735;BME280;59577;52.122;5.406;2023-04-05T10:37:29;102369.75;;;19.31;25.02
71735;BME280;59577;52.122;5.406;2023-04-05T10:40:08;102369.16;;;19.11;27.97
71735;BME280;59577;52.122;5.406;2023-04-05T10:43:00;102361.28;;;19.43;28.51
71735;BME280;59577;52.122;5.406;2023-04-05T10:45:30;102359.56;;;19.28;26.07
71735;BME280;59577;52.122;5.406;2023-04-05T10:51:04;102358.41;;;18.72;24.77
71735;BME280;59577;52.122;5.406;2023-04-05T10:53:31;102359.09;;;18.38;25.93
71735;BME280;59577;52.122;5.406;2023-04-05T10:56:02;102358.16;;;18.04;25.35
71735;BME280;59577;52.122;5.406;2023-04-05T10:58:29;102358.63;;;17.87;26.12
71735;BME280;59577;52.122;5.406;2023-04-05T11:01:05;102350.84;;;17.89;25.92
71735;BME280;59577;52.122;5.406;2023-04-05T11:09:08;102344.41;;;17.38;26.87
71735;BME280;59577;52.122;5.406;2023-04-05T11:11:48;102340.50;;;17.59;29.98
71735;BME280;59577;52.122;5.406;2023-04-05T11:14:36;102332.78;;;18.34;30.99
71735;BME280;59577;52.122;5.406;2023-04-05T11:17:28;102331.06;;;19.06;30.80
71735;BME280;59577;52.122;5.406;2023-04-05T11:20:05;102324.28;;;19.30;29.66
71735;BME280;59577;52.122;5.406;2023-04-05T11:22:53;102326.94;;;19.64;27.46
71735;BME280;59577;52.122;5.406;2023-04-05T11:25:23;102328.38;;;19.13;26.57
71735;BME280;59577;52.122;5.406;2023-04-05T11:28:17;102316.84;;;18.16;26.11
71735;BME280;59577;52.122;5.406;2023-04-05T11:33:36;102332.97;;;16.94;27.56
71735;BME280;59577;52.122;5.406;2023-04-05T11:36:03;102326.34;;;16.95;29.58
71735;BME280;59577;52.122;5.406;2023-04-05T11:38:30;102319.25;;;17.09;28.19
71735;BME280;59577;52.122;5.406;2023-04-05T11:41:14;102315.78;;;16.58;27.72
71735;BME280;59577;52.122;5.406;2023-04-05T11:43:46;102309.78;;;17.07;28.21
71735;BME280;59577;52.122;5.406;2023-04-05T11:46:13;102304.94;;;17.20;26.57
71735;BME280;59577;52.122;5.406;2023-04-05T11:49:04;102311.88;;;16.94;27.28
71735;BME280;59577;52.122;5.406;2023-04-05T11:51:32;102299.50;;;17.00;26.78
71735;BME280;59577;52.122;5.406;2023-04-05T11:53:59;102295.19;;;16.64;27.02
71735;BME280;59577;52.122;5.406;2023-04-05T11:56:27;102294.75;;;16.97;28.29
71735;BME280;59577;52.122;5.406;2023-04-05T11:58:57;102287.84;;;16.84;27.15
71735;BME280;59577;52.122;5.406;2023-04-05T12:01:24;102287.94;;;16.71;28.67
71735;BME280;59577;52.122;5.406;2023-04-05T12:04:06;102283.03;;;16.61;27.63
71735;BME280;59577;52.122;5.406;2023-04-05T12:06:32;102290.00;;;16.23;27.41
71735;BME280;59577;52.122;5.406;2023-04-05T12:08:59;102280.75;;;16.12;29.56
71735;BME280;59577;52.122;5.406;2023-04-05T12:11:27;102278.84;;;16.48;30.20
71735;BME280;59577;52.122;5.406;2023-04-05T12:13:58;102273.81;;;16.50;28.30
71735;BME280;59577;52.122;5.406;2023-04-05T12:16:26;102277.16;;;15.92;28.17
71735;BME280;59577;52.122;5.406;2023-04-05T12:19:15;102281.09;;;15.34;28.35
71735;BME280;59577;52.122;5.406;2023-04-05T12:21:42;102268.44;;;14.98;30.07
71735;BME280;59577;52.122;5.406;2023-04-05T12:24:08;102266.00;;;15.09;31.33
71735;BME280;59577;52.122;5.406;2023-04-05T12:26:49;102260.25;;;15.26;29.65
71735;BME280;59577;52.122;5.406;2023-04-05T12:29:16;102262.44;;;14.92;30.38
71735;BME280;59577;52.122;5.406;2023-04-05T12:31:49;102266.06;;;15.25;30.21
71735;BME280;59577;52.122;5.406;2023-04-05T12:34:22;102264.47;;;14.95;29.14
71735;BME280;59577;52.122;5.406;2023-04-05T12:37:04;102257.72;;;14.77;29.62
71735;BME280;59577;52.122;5.406;2023-04-05T12:39:34;102254.84;;;14.85;29.40
71735;BME280;59577;52.122;5.406;2023-04-05T12:42:00;102248.84;;;15.08;30.22
71735;BME280;59577;52.122;5.406;2023-04-05T12:44:28;102246.66;;;15.14;31.12
71735;BME280;59577;52.122;5.406;2023-04-05T12:47:21;102250.50;;;14.97;30.16
71735;BME280;59577;52.122;5.406;2023-04-05T12:49:47;102242.72;;;14.71;30.93
71735;BME280;59577;52.122;5.406;2023-04-05T12:52:18;102240.63;;;14.92;33.75
71735;BME280;59577;52.122;5.406;2023-04-05T12:54:53;102242.44;;;15.16;31.33
71735;BME280;59577;52.122;5.406;2023-04-05T12:57:30;102238.78;;;14.96;30.16
71735;BME280;59577;52.122;5.406;2023-04-05T12:59:57;102227.88;;;14.96;32.19
71735;BME280;59577;52.122;5.406;2023-04-05T13:02:23;102230.66;;;15.12;31.41
71735;BME280;59577;52.122;5.406;2023-04-05T13:04:50;102224.97;;;15.49;33.04
71735;BME280;59577;52.122;5.406;2023-04-05T13:07:16;102209.22;;;15.42;29.46
71735;BME280;59577;52.122;5.406;2023-04-05T13:09:43;102219.59;;;15.21;30.69
71735;BME280;59577;52.122;5.406;2023-04-05T13:12:12;102210.09;;;14.87;29.97
71735;BME280;59577;52.122;5.406;2023-04-05T13:14:40;102208.44;;;14.70;30.85
71735;BME280;59577;52.122;5.406;2023-04-05T13:17:07;102204.94;;;14.69;34.01
71735;BME280;59577;52.122;5.406;2023-04-05T13:19:33;102206.94;;;14.72;30.68
71735;BME280;59577;52.122;5.406;2023-04-05T13:22:00;102200.63;;;14.68;34.71
71735;BME280;59577;52.122;5.406;2023-04-05T13:24:27;102200.00;;;15.03;31.16
71735;BME280;59577;52.122;5.406;2023-04-05T13:27:05;102195.50;;;14.66;29.60
71735;BME280;59577;52.122;5.406;2023-04-05T13:29:31;102197.84;;;14.40;30.85
71735;BME280;59577;52.122;5.406;2023-04-05T13:31:58;102191.53;;;14.52;31.21
71735;BME280;59577;52.122;5.406;2023-04-05T13:34:25;102185.81;;;14.28;29.77
71735;BME280;59577;52.122;5.406;2023-04-05T13:36:51;102184.28;;;14.56;31.09